sensor_id;sensor_type;location;lat;lon;timestamp;pressure;altitude;pressure_sealevel;temperature;humidity
39773;BME280;25451;51.960;6.250;2023-04-29T00:02:17;101213.75;;;12.82;71.88
39773;BME280;25451;51.960;6.250;2023-04-29T00:04:42;101215.94;;;12.80;71.98
39773;BME280;25451;51.960;6.250;2023-04-29T00:07:07;101221.63;;;12.74;71.69
39773;BME280;25451;51.960;6.250;2023-04-29T00:09:33;101218.03;;;12.73;71.74
39773;BME280;25451;51.960;6.250;2023-04-29T00:11:58;101222.97;;;12.71;71.74
39773;BME280;25451;51.960;6.250;2023-04-29T00:14:24;101198.59;;;12.57;71.60
39773;BME280;25451;51.960;6.250;2023-04-29T00:16:49;101224.56;;;12.67;72.05
39773;BME280;25451;51.960;6.250;2023-04-29T00:19:14;101222.03;;;12.66;71.97
39773;BME280;25451;51.960;6.250;2023-04-29T00:21:40;101226.47;;;12.67;71.60
39773;BME280;25451;51.960;6.250;2023-04-29T00:24:05;101228.31;;;12.61;71.76
39773;BME280;25451;51.960;6.250;2023-04-29T00:26:31;101239.72;;;12.65;71.66
39773;BME280;25451;51.960;6.250;2023-04-29T00:28:56;101231.34;;;12.60;71.99
39773;BME280;25451;51.960;6.250;2023-04-29T00:31:21;101236.63;;;12.61;71.80
39773;BME280;25451;51.960;6.250;2023-04-29T00:33:47;101238.22;;;12.57;71.70
39773;BME280;25451;51.960;6.250;2023-04-29T00:36:12;101231.22;;;12.55;71.98
39773;BME280;25451;51.960;6.250;2023-04-29T00:38:37;101248.44;;;12.57;71.57
39773;BME280;25451;51.960;6.250;2023-04-29T00:41:03;101253.75;;;12.58;71.99
39773;BME280;25451;51.960;6.250;2023-04-29T00:43:28;101252.56;;;12.54;71.84
39773;BME280;25451;51.960;6.250;2023-04-29T00:45:54;101263.38;;;12.56;71.71
39773;BME280;25451;51.960;6.250;2023-04-29T00:48:19;101247.75;;;12.49;71.60
39773;BME280;25451;51.960;6.250;2023-04-29T00:50:44;101250.53;;;12.49;71.98
39773;BME280;25451;51.960;6.250;2023-04-29T00:53:10;101239.84;;;12.41;72.09
39773;BME280;25451;51.960;6.250;2023-04-29T00:55:37;101256.41;;;12.53;71.74
39773;BME280;25451;51.960;6.250;2023-04-29T00:58:03;101263.88;;;12.52;72.05
39773;BME280;25451;51.960;6.250;2023-04-29T01:00:29;101264.72;;;12.53;71.67
39773;BME280;25451;51.960;6.250;2023-04-29T01:02:55;101269.06;;;12.49;71.64
39773;BME280;25451;51.960;6.250;2023-04-29T01:05:22;101273.28;;;12.52;71.96
39773;BME280;25451;51.960;6.250;2023-04-29T01:10:44;101281.00;;;12.49;71.69
39773;BME280;25451;51.960;6.250;2023-04-29T01:13:17;101274.59;;;12.49;71.75
39773;BME280;25451;51.960;6.250;2023-04-29T01:15:46;101284.00;;;12.48;71.99
39773;BME280;25451;51.960;6.250;2023-04-29T01:19:01;101282.31;;;12.47;72.06
39773;BME280;25451;51.960;6.250;2023-04-29T01:20:59;101281.72;;;12.45;71.94
39773;BME280;25451;51.960;6.250;2023-04-29T01:23:26;101282.78;;;12.44;71.89
39773;BME280;25451;51.960;6.250;2023-04-29T01:25:52;101290.88;;;12.45;72.09
39773;BME280;25451;51.960;6.250;2023-04-29T01:28:24;101286.41;;;12.44;71.91
39773;BME280;25451;51.960;6.250;2023-04-29T01:31:06;101280.19;;;12.37;71.89
39773;BME280;25451;51.960;6.250;2023-04-29T01:36:39;101291.00;;;12.39;72.07
39773;BME280;25451;51.960;6.250;2023-04-29T01:39:13;101306.28;;;12.41;71.75
39773;BME280;25451;51.960;6.250;2023-04-29T01:41:45;101304.59;;;12.40;71.93
39773;BME280;25451;51.960;6.250;2023-04-29T01:44:21;101303.16;;;12.38;71.78
39773;BME280;25451;51.960;6.250;2023-04-29T01:46:50;101306.78;;;12.38;71.96
39773;BME280;25451;51.960;6.250;2023-04-29T01:49:27;101293.66;;;12.34;72.01
39773;BME280;25451;51.960;6.250;2023-04-29T01:51:53;101287.44;;;12.27;72.07
39773;BME280;25451;51.960;6.250;2023-04-29T01:54:19;101308.09;;;12.36;71.85
39773;BME280;25451;51.960;6.250;2023-04-29T01:56:45;101294.28;;;12.24;71.95
39773;BME280;25451;51.960;6.250;2023-04-29T01:59:10;101310.78;;;12.31;72.23
39773;BME280;25451;51.960;6.250;2023-04-29T02:01:36;101313.28;;;12.32;72.30
39773;BME280;25451;51.960;6.250;2023-04-29T02:04:01;101311.38;;;12.33;72.25
39773;BME280;25451;51.960;6.250;2023-04-29T02:06:27;101307.88;;;12.26;72.21
39773;BME280;25451;51.960;6.250;2023-04-29T02:08:52;101320.75;;;12.32;71.94
39773;BME280;25451;51.960;6.250;2023-04-29T02:11:18;101314.00;;;12.28;72.25
39773;BME280;25451;51.960;6.250;2023-04-29T02:13:43;101317.88;;;12.27;71.93
39773;BME280;25451;51.960;6.250;2023-04-29T02:16:10;101324.88;;;12.29;72.21
39773;BME280;25451;51.960;6.250;2023-04-29T02:18:36;101325.09;;;12.28;71.99
39773;BME280;25451;51.960;6.250;2023-04-29T02:21:02;101331.97;;;12.25;72.11
39773;BME280;25451;51.960;6.250;2023-04-29T02:23:27;101321.28;;;12.17;72.13
39773;BME280;25451;51.960;6.250;2023-04-29T02:25:53;101339.44;;;12.25;72.26
39773;BME280;25451;51.960;6.250;2023-04-29T02:28:19;101342.44;;;12.23;72.10
39773;BME280;25451;51.960;6.250;2023-04-29T02:30:44;101344.63;;;12.21;72.24
39773;BME280;25451;51.960;6.250;2023-04-29T02:33:10;101334.88;;;12.19;72.07
39773;BME280;25451;51.960;6.250;2023-04-29T02:35:35;101347.00;;;12.18;72.51
39773;BME280;25451;51.960;6.250;2023-04-29T02:38:00;101355.09;;;12.19;72.49
39773;BME280;25451;51.960;6.250;2023-04-29T02:40:26;101353.38;;;12.18;72.42
39773;BME280;25451;51.960;6.250;2023-04-29T02:42:51;101354.50;;;12.17;72.30
39773;BME280;25451;51.960;6.250;2023-04-29T02:45:17;101359.16;;;12.17;72.57
39773;BME280;25451;51.960;6.250;2023-04-29T02:47:42;101356.53;;;12.10;72.40
39773;BME280;25451;51.960;6.250;2023-04-29T02:50:08;101355.31;;;12.06;72.47
39773;BME280;25451;51.960;6.250;2023-04-29T02:52:33;101360.75;;;12.13;72.33
39773;BME280;25451;51.960;6.250;2023-04-29T02:54:59;101362.31;;;12.09;72.64
39773;BME280;25451;51.960;6.250;2023-04-29T02:57:24;101375.44;;;12.13;72.11
39773;BME280;25451;51.960;6.250;2023-04-29T02:59:49;101378.91;;;12.09;72.29
39773;BME280;25451;51.960;6.250;2023-04-29T03:02:15;101376.00;;;12.04;72.19
39773;BME280;25451;51.960;6.250;2023-04-29T03:04:41;101388.06;;;12.09;72.49
39773;BME280;25451;51.960;6.250;2023-04-29T03:07:06;101399.13;;;12.09;72.17
39773;BME280;25451;51.960;6.250;2023-04-29T03:09:32;101387.47;;;12.07;72.32
39773;BME280;25451;51.960;6.250;2023-04-29T03:11:57;101384.31;;;12.04;72.25
39773;BME280;25451;51.960;6.250;2023-04-29T03:14:22;101396.84;;;12.06;72.18
39773;BME280;25451;51.960;6.250;2023-04-29T03:16:48;101387.56;;;12.01;72.33
39773;BME280;25451;51.960;6.250;2023-04-29T03:19:13;101389.03;;;12.03;72.48
39773;BME280;25451;51.960;6.250;2023-04-29T03:21:38;101371.94;;;11.95;72.33
39773;BME280;25451;51.960;6.250;2023-04-29T03:24:04;101390.56;;;11.99;72.57
39773;BME280;25451;51.960;6.250;2023-04-29T03:26:29;101401.63;;;11.99;72.36
39773;BME280;25451;51.960;6.250;2023-04-29T03:28:55;101395.75;;;11.96;72.55
39773;BME280;25451;51.960;6.250;2023-04-29T03:31:20;101392.88;;;11.91;72.22
39773;BME280;25451;51.960;6.250;2023-04-29T03:33:47;101403.44;;;11.94;72.45
39773;BME280;25451;51.960;6.250;2023-04-29T03:36:12;101402.22;;;11.90;72.67
39773;BME280;25451;51.960;6.250;2023-04-29T03:38:37;101389.34;;;11.84;72.29
39773;BME280;25451;51.960;6.250;2023-04-29T03:41:03;101400.78;;;11.87;72.42
39773;BME280;25451;51.960;6.250;2023-04-29T03:43:29;101400.66;;;11.82;72.49
39773;BME280;25451;51.960;6.250;2023-04-29T03:45:54;101404.28;;;11.83;72.51
39773;BME280;25451;51.960;6.250;2023-04-29T03:48:19;101400.66;;;11.82;72.49
39773;BME280;25451;51.960;6.250;2023-04-29T03:50:45;101398.00;;;11.76;72.79
39773;BME280;25451;51.960;6.250;2023-04-29T03:53:11;101408.59;;;11.79;72.44
39773;BME280;25451;51.960;6.250;2023-04-29T03:55:37;101412.19;;;11.79;72.54
39773;BME280;25451;51.960;6.250;2023-04-29T03:58:02;101423.25;;;11.79;72.67
39773;BME280;25451;51.960;6.250;2023-04-29T04:00:29;101402.34;;;11.72;72.41
39773;BME280;25451;51.960;6.250;2023-04-29T04:02:56;101410.16;;;11.75;72.64
39773;BME280;25451;51.960;6.250;2023-04-29T04:05:21;101419.06;;;11.77;72.37
39773;BME280;25451;51.960;6.250;2023-04-29T04:07:49;101431.81;;;11.78;72.29
39773;BME280;25451;51.960;6.250;2023-04-29T04:10:15;101430.34;;;11.75;72.28
39773;BME280;25451;51.960;6.250;2023-04-29T04:12:40;101431.09;;;11.71;72.75
39773;BME280;25451;51.960;6.250;2023-04-29T04:15:05;101434.44;;;11.73;72.63
39773;BME280;25451;51.960;6.250;2023-04-29T04:17:31;101402.84;;;11.50;72.35
39773;BME280;25451;51.960;6.250;2023-04-29T04:19:56;101441.13;;;11.65;72.54
39773;BME280;25451;51.960;6.250;2023-04-29T04:22:22;101431.59;;;11.61;72.64
39773;BME280;25451;51.960;6.250;2023-04-29T04:24:47;101446.47;;;11.67;72.25
39773;BME280;25451;51.960;6.250;2023-04-29T04:27:12;101442.84;;;11.66;72.77
39773;BME280;25451;51.960;6.250;2023-04-29T04:29:38;101456.19;;;11.69;72.34
39773;BME280;25451;51.960;6.250;2023-04-29T04:32:04;101450.91;;;11.68;72.30
39773;BME280;25451;51.960;6.250;2023-04-29T04:34:29;101457.69;;;11.65;72.59
39773;BME280;25451;51.960;6.250;2023-04-29T04:36:54;101454.34;;;11.63;72.18
39773;BME280;25451;51.960;6.250;2023-04-29T04:39:20;101466.00;;;11.65;72.29
39773;BME280;25451;51.960;6.250;2023-04-29T04:41:45;101452.16;;;11.53;72.71
39773;BME280;25451;51.960;6.250;2023-04-29T04:44:10;101451.53;;;11.51;72.20
39773;BME280;25451;51.960;6.250;2023-04-29T04:46:36;101472.88;;;11.62;72.54
39773;BME280;25451;51.960;6.250;2023-04-29T04:49:01;101474.38;;;11.58;72.21
39773;BME280;25451;51.960;6.250;2023-04-29T04:51:27;101479.47;;;11.61;72.50
39773;BME280;25451;51.960;6.250;2023-04-29T04:53:53;101477.63;;;11.55;72.54
39773;BME280;25451;51.960;6.250;2023-04-29T04:56:18;101472.97;;;11.56;72.61
39773;BME280;25451;51.960;6.250;2023-04-29T04:58:43;101484.84;;;11.56;72.30
39773;BME280;25451;51.960;6.250;2023-04-29T05:01:09;101474.97;;;11.49;72.49
39773;BME280;25451;51.960;6.250;2023-04-29T05:03:34;101487.84;;;11.55;72.22
39773;BME280;25451;51.960;6.250;2023-04-29T05:06:00;101493.13;;;11.56;72.49
39773;BME280;25451;51.960;6.250;2023-04-29T05:08:25;101492.53;;;11.54;72.20
39773;BME280;25451;51.960;6.250;2023-04-29T05:10:51;101502.03;;;11.58;72.26
39773;BME280;25451;51.960;6.250;2023-04-29T05:13:17;101493.63;;;11.53;72.32
39773;BME280;25451;51.960;6.250;2023-04-29T05:15:44;101503.13;;;11.57;72.18
39773;BME280;25451;51.960;6.250;2023-04-29T05:18:09;101509.50;;;11.58;72.16
39773;BME280;25451;51.960;6.250;2023-04-29T05:20:35;101503.59;;;11.54;72.16
39773;BME280;25451;51.960;6.250;2023-04-29T05:23:04;101515.88;;;11.58;72.25
39773;BME280;25451;51.960;6.250;2023-04-29T05:25:29;101512.28;;;11.58;72.42
39773;BME280;25451;51.960;6.250;2023-04-29T05:27:54;101521.41;;;11.58;72.20
39773;BME280;25451;51.960;6.250;2023-04-29T05:30:20;101524.16;;;11.58;72.13
39773;BME280;25451;51.960;6.250;2023-04-29T05:32:45;101527.56;;;11.60;72.08
39773;BME280;25451;51.960;6.250;2023-04-29T05:35:11;101535.00;;;11.60;72.42
39773;BME280;25451;51.960;6.250;2023-04-29T05:37:36;101528.63;;;11.59;72.38
39773;BME280;25451;51.960;6.250;2023-04-29T05:40:02;101533.09;;;11.60;72.39
39773;BME280;25451;51.960;6.250;2023-04-29T05:42:28;101537.53;;;11.61;72.46
39773;BME280;25451;51.960;6.250;2023-04-29T05:44:53;101533.38;;;11.52;72.34
39773;BME280;25451;51.960;6.250;2023-04-29T05:47:18;101541.38;;;11.60;72.36
39773;BME280;25451;51.960;6.250;2023-04-29T05:49:44;101535.22;;;11.58;72.21
39773;BME280;25451;51.960;6.250;2023-04-29T05:52:09;101539.94;;;11.58;72.22
39773;BME280;25451;51.960;6.250;2023-04-29T05:54:34;101542.91;;;11.56;72.20
39773;BME280;25451;51.960;6.250;2023-04-29T05:57:00;101555.81;;;11.62;72.25
39773;BME280;25451;51.960;6.250;2023-04-29T05:59:28;101549.88;;;11.59;72.42
39773;BME280;25451;51.960;6.250;2023-04-29T06:01:58;101561.09;;;11.64;72.05
39773;BME280;25451;51.960;6.250;2023-04-29T06:04:24;101563.44;;;11.67;72.35
39773;BME280;25451;51.960;6.250;2023-04-29T06:06:53;101565.38;;;11.67;72.33
39773;BME280;25451;51.960;6.250;2023-04-29T06:09:19;101575.09;;;11.69;72.27
39773;BME280;25451;51.960;6.250;2023-04-29T06:11:45;101563.03;;;11.63;72.06
39773;BME280;25451;51.960;6.250;2023-04-29T06:14:10;101578.25;;;11.73;72.27
39773;BME280;25451;51.960;6.250;2023-04-29T06:16:36;101566.41;;;11.65;72.03
39773;BME280;25451;51.960;6.250;2023-04-29T06:19:01;101588.00;;;11.75;72.25
39773;BME280;25451;51.960;6.250;2023-04-29T06:21:26;101587.53;;;11.78;72.38
39773;BME280;25451;51.960;6.250;2023-04-29T06:23:52;101582.47;;;11.75;72.13
39773;BME280;25451;51.960;6.250;2023-04-29T06:26:18;101579.09;;;11.73;72.07
39773;BME280;25451;51.960;6.250;2023-04-29T06:28:45;101592.81;;;11.80;72.24
39773;BME280;25451;51.960;6.250;2023-04-29T06:31:11;101605.09;;;11.84;72.35
39773;BME280;25451;51.960;6.250;2023-04-29T06:33:36;101601.28;;;11.85;72.14
39773;BME280;25451;51.960;6.250;2023-04-29T06:36:01;101603.19;;;11.84;72.28
39773;BME280;25451;51.960;6.250;2023-04-29T06:38:27;101607.88;;;11.84;72.37
39773;BME280;25451;51.960;6.250;2023-04-29T06:40:52;101609.94;;;11.88;72.29
39773;BME280;25451;51.960;6.250;2023-04-29T06:43:18;101608.56;;;11.79;72.37
39773;BME280;25451;51.960;6.250;2023-04-29T06:45:46;101619.72;;;11.91;72.38
39773;BME280;25451;51.960;6.250;2023-04-29T06:48:11;101621.88;;;11.89;72.30
39773;BME280;25451;51.960;6.250;2023-04-29T06:50:37;101614.38;;;11.89;72.06
39773;BME280;25451;51.960;6.250;2023-04-29T06:53:02;101621.63;;;11.90;72.24
39773;BME280;25451;51.960;6.250;2023-04-29T06:55:27;101633.66;;;11.96;72.19
39773;BME280;25451;51.960;6.250;2023-04-29T06:57:52;101630.66;;;11.97;72.23
39773;BME280;25451;51.960;6.250;2023-04-29T07:00:18;101640.41;;;12.00;72.15
39773;BME280;25451;51.960;6.250;2023-04-29T07:02:45;101626.91;;;11.92;71.91
39773;BME280;25451;51.960;6.250;2023-04-29T07:05:11;101644.28;;;11.99;71.93
39773;BME280;25451;51.960;6.250;2023-04-29T07:07:37;101644.28;;;11.99;72.14
39773;BME280;25451;51.960;6.250;2023-04-29T07:10:02;101654.41;;;12.05;72.19
39773;BME280;25451;51.960;6.250;2023-04-29T07:12:27;101648.47;;;12.01;72.04
39773;BME280;25451;51.960;6.250;2023-04-29T07:14:53;101658.25;;;12.04;72.19
39773;BME280;25451;51.960;6.250;2023-04-29T07:17:18;101662.22;;;12.08;71.66
39773;BME280;25451;51.960;6.250;2023-04-29T07:19:44;101668.00;;;12.06;72.23
39773;BME280;25451;51.960;6.250;2023-04-29T07:22:10;101664.78;;;12.09;71.94
39773;BME280;25451;51.960;6.250;2023-04-29T07:24:35;101677.44;;;12.17;71.89
39773;BME280;25451;51.960;6.250;2023-04-29T07:27:00;101676.34;;;12.18;71.85
39773;BME280;25451;51.960;6.250;2023-04-29T07:29:25;101682.28;;;12.21;71.64
39773;BME280;25451;51.960;6.250;2023-04-29T07:31:51;101672.97;;;12.16;71.96
39773;BME280;25451;51.960;6.250;2023-04-29T07:34:16;101687.09;;;12.26;71.71
39773;BME280;25451;51.960;6.250;2023-04-29T07:36:41;101688.41;;;12.23;71.65
39773;BME280;25451;51.960;6.250;2023-04-29T07:39:06;101698.75;;;12.28;71.80
39773;BME280;25451;51.960;6.250;2023-04-29T07:41:32;101689.41;;;12.29;71.83
39773;BME280;25451;51.960;6.250;2023-04-29T07:43:58;101694.44;;;12.32;71.76
39773;BME280;25451;51.960;6.250;2023-04-29T07:46:23;101699.03;;;12.38;71.75
39773;BME280;25451;51.960;6.250;2023-04-29T07:48:48;101706.66;;;12.42;71.56
39773;BME280;25451;51.960;6.250;2023-04-29T07:51:14;101698.34;;;12.42;71.68
39773;BME280;25451;51.960;6.250;2023-04-29T07:53:40;101711.25;;;12.48;71.59
39773;BME280;25451;51.960;6.250;2023-04-29T07:56:06;101718.00;;;12.52;71.68
39773;BME280;25451;51.960;6.250;2023-04-29T07:58:32;101713.94;;;12.55;71.36
39773;BME280;25451;51.960;6.250;2023-04-29T08:01:04;101715.84;;;12.55;71.51
39773;BME280;25451;51.960;6.250;2023-04-29T08:03:30;101734.88;;;12.63;71.27
39773;BME280;25451;51.960;6.250;2023-04-29T08:05:59;101734.44;;;12.66;71.58
39773;BME280;25451;51.960;6.250;2023-04-29T08:08:25;101749.25;;;12.71;71.17
39773;BME280;25451;51.960;6.250;2023-04-29T08:10:50;101738.41;;;12.70;71.45
39773;BME280;25451;51.960;6.250;2023-04-29T08:13:16;101731.69;;;12.77;71.17
39773;BME280;25451;51.960;6.250;2023-04-29T08:15:41;101744.47;;;12.78;71.02
39773;BME280;25451;51.960;6.250;2023-04-29T08:18:07;101740.16;;;12.82;71.06
39773;BME280;25451;51.960;6.250;2023-04-29T08:20:32;101737.97;;;12.84;71.09
39773;BME280;25451;51.960;6.250;2023-04-29T08:22:58;101740.41;;;12.92;71.34
39773;BME280;25451;51.960;6.250;2023-04-29T08:25:25;101733.16;;;12.91;71.18
39773;BME280;25451;51.960;6.250;2023-04-29T08:27:51;101750.03;;;13.01;70.90
39773;BME280;25451;51.960;6.250;2023-04-29T08:30:16;101753.00;;;13.06;70.78
39773;BME280;25451;51.960;6.250;2023-04-29T08:32:42;101752.50;;;13.09;70.71
39773;BME280;25451;51.960;6.250;2023-04-29T08:35:07;101753.09;;;13.11;70.65
39773;BME280;25451;51.960;6.250;2023-04-29T08:37:33;101749.88;;;13.14;70.60
39773;BME280;25451;51.960;6.250;2023-04-29T08:39:58;101768.69;;;13.24;70.46
39773;BME280;25451;51.960;6.250;2023-04-29T08:42:32;101768.81;;;13.29;70.42
39773;BME280;25451;51.960;6.250;2023-04-29T08:44:58;101760.50;;;13.29;70.29
39773;BME280;25451;51.960;6.250;2023-04-29T08:47:25;101757.72;;;13.29;70.19
39773;BME280;25451;51.960;6.250;2023-04-29T08:49:52;101763.78;;;13.38;70.31
39773;BME280;25451;51.960;6.250;2023-04-29T08:52:18;101761.34;;;13.41;70.24
39773;BME280;25451;51.960;6.250;2023-04-29T08:54:43;101773.28;;;13.53;70.24
39773;BME280;25451;51.960;6.250;2023-04-29T08:57:10;101772.91;;;13.61;69.87
39773;BME280;25451;51.960;6.250;2023-04-29T08:59:36;101759.06;;;13.61;69.79
39773;BME280;25451;51.960;6.250;2023-04-29T09:02:08;101759.88;;;13.73;69.66
39773;BME280;25451;51.960;6.250;2023-04-29T09:04:46;101782.44;;;13.88;69.44
39773;BME280;25451;51.960;6.250;2023-04-29T09:07:12;101781.69;;;13.93;69.19
39773;BME280;25451;51.960;6.250;2023-04-29T09:09:38;101776.75;;;13.95;69.30
39773;BME280;25451;51.960;6.250;2023-04-29T09:12:05;101791.22;;;14.08;68.87
39773;BME280;25451;51.960;6.250;2023-04-29T09:14:31;101768.28;;;14.01;68.84
39773;BME280;25451;51.960;6.250;2023-04-29T09:16:58;101794.94;;;14.14;68.96
39773;BME280;25451;51.960;6.250;2023-04-29T09:19:35;101787.47;;;14.14;68.71
39773;BME280;25451;51.960;6.250;2023-04-29T09:22:01;101793.63;;;14.17;68.55
39773;BME280;25451;51.960;6.250;2023-04-29T09:24:29;101798.66;;;14.20;68.46
39773;BME280;25451;51.960;6.250;2023-04-29T09:26:55;101796.75;;;14.20;68.52
39773;BME280;25451;51.960;6.250;2023-04-29T09:29:20;101797.94;;;14.24;68.36
39773;BME280;25451;51.960;6.250;2023-04-29T09:31:46;101786.56;;;14.26;68.26
39773;BME280;25451;51.960;6.250;2023-04-29T09:34:12;101784.78;;;14.20;67.98
39773;BME280;25451;51.960;6.250;2023-04-29T09:39:08;101797.44;;;14.39;67.92
39773;BME280;25451;51.960;6.250;2023-04-29T09:41:41;101810.69;;;14.48;67.88
39773;BME280;25451;51.960;6.250;2023-04-29T09:44:08;101805.47;;;14.52;67.70
39773;BME280;25451;51.960;6.250;2023-04-29T09:46:34;101815.38;;;14.59;67.56
39773;BME280;25451;51.960;6.250;2023-04-29T09:49:03;101803.06;;;14.55;67.40
39773;BME280;25451;51.960;6.250;2023-04-29T09:51:56;101829.47;;;14.69;67.29
39773;BME280;25451;51.960;6.250;2023-04-29T09:54:27;101812.47;;;14.66;67.11
39773;BME280;25451;51.960;6.250;2023-04-29T09:56:53;101813.41;;;14.71;66.81
39773;BME280;25451;51.960;6.250;2023-04-29T09:59:19;101830.75;;;14.78;66.81
39773;BME280;25451;51.960;6.250;2023-04-29T10:01:52;101834.13;;;14.80;66.68
39773;BME280;25451;51.960;6.250;2023-04-29T10:04:19;101830.41;;;14.75;66.55
39773;BME280;25451;51.960;6.250;2023-04-29T10:06:48;101835.84;;;14.81;66.59
39773;BME280;25451;51.960;6.250;2023-04-29T10:09:14;101833.38;;;14.85;66.46
39773;BME280;25451;51.960;6.250;2023-04-29T10:11:41;101835.69;;;14.88;66.19
39773;BME280;25451;51.960;6.250;2023-04-29T10:14:06;101828.75;;;14.90;66.14
39773;BME280;25451;51.960;6.250;2023-04-29T10:16:44;101828.88;;;14.95;65.94
39773;BME280;25451;51.960;6.250;2023-04-29T10:19:14;101797.50;;;14.83;65.82
39773;BME280;25451;51.960;6.250;2023-04-29T10:21:43;101828.59;;;15.09;65.71
39773;BME280;25451;51.960;6.250;2023-04-29T10:24:09;101816.59;;;15.08;65.57
39773;BME280;25451;51.960;6.250;2023-04-29T10:26:36;101827.91;;;15.18;65.23
39773;BME280;25451;51.960;6.250;2023-04-29T10:29:04;101825.97;;;15.19;65.15
39773;BME280;25451;51.960;6.250;2023-04-29T10:31:30;101823.53;;;15.22;64.88
39773;BME280;25451;51.960;6.250;2023-04-29T10:33:57;101830.34;;;15.31;64.81
39773;BME280;25451;51.960;6.250;2023-04-29T10:36:27;101832.66;;;15.34;64.38
39773;BME280;25451;51.960;6.250;2023-04-29T10:38:57;101847.63;;;15.45;64.34
39773;BME280;25451;51.960;6.250;2023-04-29T10:41:25;101829.59;;;15.47;64.23
39773;BME280;25451;51.960;6.250;2023-04-29T10:43:52;101842.22;;;15.55;64.06
39773;BME280;25451;51.960;6.250;2023-04-29T10:46:20;101844.47;;;15.58;63.98
39773;BME280;25451;51.960;6.250;2023-04-29T10:48:46;101845.66;;;15.62;63.94
39773;BME280;25451;51.960;6.250;2023-04-29T10:51:12;101827.19;;;15.56;63.65
39773;BME280;25451;51.960;6.250;2023-04-29T10:54:02;101840.78;;;15.69;63.65
39773;BME280;25451;51.960;6.250;2023-04-29T10:56:37;101842.22;;;15.71;63.44
39773;BME280;25451;51.960;6.250;2023-04-29T10:59:03;101836.28;;;15.68;63.34
39773;BME280;25451;51.960;6.250;2023-04-29T11:01:50;101845.91;;;15.77;63.37
39773;BME280;25451;51.960;6.250;2023-04-29T11:04:17;101838.47;;;15.83;63.57
39773;BME280;25451;51.960;6.250;2023-04-29T11:06:50;101836.59;;;15.88;63.24
39773;BME280;25451;51.960;6.250;2023-04-29T11:09:34;101841.50;;;15.98;63.07
39773;BME280;25451;51.960;6.250;2023-04-29T11:12:08;101837.13;;;16.02;62.91
39773;BME280;25451;51.960;6.250;2023-04-29T11:14:36;101850.34;;;16.11;62.77
39773;BME280;25451;51.960;6.250;2023-04-29T11:17:06;101841.47;;;16.14;62.83
39773;BME280;25451;51.960;6.250;2023-04-29T11:19:33;101829.66;;;16.07;62.62
39773;BME280;25451;51.960;6.250;2023-04-29T11:22:07;101841.47;;;16.14;62.47
39773;BME280;25451;51.960;6.250;2023-04-29T11:24:33;101847.69;;;16.21;62.33
39773;BME280;25451;51.960;6.250;2023-04-29T11:27:01;101849.97;;;16.24;62.36
39773;BME280;25451;51.960;6.250;2023-04-29T11:29:30;101846.66;;;16.27;62.19
39773;BME280;25451;51.960;6.250;2023-04-29T11:32:00;101854.56;;;16.35;62.11
39773;BME280;25451;51.960;6.250;2023-04-29T11:34:25;101844.88;;;16.38;62.02
39773;BME280;25451;51.960;6.250;2023-04-29T11:36:52;101853.03;;;16.44;61.85
39773;BME280;25451;51.960;6.250;2023-04-29T11:39:17;101823.16;;;16.40;61.71
39773;BME280;25451;51.960;6.250;2023-04-29T11:41:42;101845.34;;;16.51;61.89
39773;BME280;25451;51.960;6.250;2023-04-29T11:44:08;101851.56;;;16.58;61.55
39773;BME280;25451;51.960;6.250;2023-04-29T11:46:34;101838.72;;;16.57;61.39
39773;BME280;25451;51.960;6.250;2023-04-29T11:49:00;101855.00;;;16.66;61.25
39773;BME280;25451;51.960;6.250;2023-04-29T11:51:26;101855.06;;;16.71;61.11
39773;BME280;25451;51.960;6.250;2023-04-29T11:53:52;101847.78;;;16.70;61.08
39773;BME280;25451;51.960;6.250;2023-04-29T11:56:21;101854.88;;;16.77;60.72
39773;BME280;25451;51.960;6.250;2023-04-29T11:58:53;101855.97;;;16.76;60.50
39773;BME280;25451;51.960;6.250;2023-04-29T12:01:19;101846.72;;;16.71;60.53
39773;BME280;25451;51.960;6.250;2023-04-29T12:03:47;101850.59;;;16.70;60.64
39773;BME280;25451;51.960;6.250;2023-04-29T12:06:13;101856.25;;;16.75;60.48
39773;BME280;25451;51.960;6.250;2023-04-29T12:08:39;101857.97;;;16.81;60.30
39773;BME280;25451;51.960;6.250;2023-04-29T12:11:05;101862.47;;;16.82;60.39
39773;BME280;25451;51.960;6.250;2023-04-29T12:13:32;101863.06;;;16.84;60.22
39773;BME280;25451;51.960;6.250;2023-04-29T12:16:00;101864.22;;;16.88;60.18
39773;BME280;25451;51.960;6.250;2023-04-29T12:18:25;101869.25;;;16.91;60.04
39773;BME280;25451;51.960;6.250;2023-04-29T12:20:52;101862.06;;;16.95;59.95
39773;BME280;25451;51.960;6.250;2023-04-29T12:23:20;101854.25;;;16.97;59.72
39773;BME280;25451;51.960;6.250;2023-04-29T12:25:51;101844.81;;;16.98;59.46
39773;BME280;25451;51.960;6.250;2023-04-29T12:28:17;101862.22;;;17.10;59.43
39773;BME280;25451;51.960;6.250;2023-04-29T12:30:44;101851.09;;;17.15;59.12
39773;BME280;25451;51.960;6.250;2023-04-29T12:33:15;101860.13;;;17.22;58.97
39773;BME280;25451;51.960;6.250;2023-04-29T12:35:40;101856.28;;;17.28;59.08
39773;BME280;25451;51.960;6.250;2023-04-29T12:38:06;101855.50;;;17.32;58.87
39773;BME280;25451;51.960;6.250;2023-04-29T12:40:31;101840.38;;;17.28;58.87
39773;BME280;25451;51.960;6.250;2023-04-29T12:43:05;101849.09;;;17.37;58.84
39773;BME280;25451;51.960;6.250;2023-04-29T12:45:32;101855.81;;;17.41;58.73
39773;BME280;25451;51.960;6.250;2023-04-29T12:47:59;101853.63;;;17.43;58.73
39773;BME280;25451;51.960;6.250;2023-04-29T12:50:35;101858.69;;;17.46;58.45
39773;BME280;25451;51.960;6.250;2023-04-29T12:53:02;101857.06;;;17.50;58.33
39773;BME280;25451;51.960;6.250;2023-04-29T12:55:31;101854.75;;;17.47;58.07
39773;BME280;25451;51.960;6.250;2023-04-29T12:57:56;101850.38;;;17.51;57.95